createdAt,value
2018-10-07T00:01:53.726Z,82.90
2018-10-07T00:04:25.457Z,82.90
2018-10-07T00:06:57.362Z,82.90
2018-10-07T00:09:29.178Z,82.70
2018-10-07T00:12:00.964Z,82.80
2018-10-07T00:14:32.709Z,83.20
2018-10-07T00:17:04.454Z,83.10
2018-10-07T00:19:36.223Z,83.00
2018-10-07T00:22:08.094Z,82.90
2018-10-07T00:24:39.830Z,83.10
2018-10-07T00:27:11.590Z,83.20
2018-10-07T00:29:43.341Z,83.60
2018-10-07T00:32:16.830Z,84.00
2018-10-07T00:34:48.739Z,84.20
2018-10-07T00:37:20.387Z,84.00
2018-10-07T00:39:52.258Z,83.90
2018-10-07T00:42:23.901Z,84.00
2018-10-07T00:44:55.767Z,84.50
2018-10-07T00:47:27.402Z,84.00
2018-10-07T00:49:59.031Z,83.90
2018-10-07T00:52:30.839Z,84.00
2018-10-07T00:55:02.591Z,84.10
2018-10-07T00:57:34.365Z,84.10
2018-10-07T01:00:06.604Z,84.00
2018-10-07T01:02:38.576Z,84.30
2018-10-07T01:05:10.348Z,83.70
2018-10-07T01:07:42.135Z,83.90
2018-10-07T01:10:13.974Z,84.20
2018-10-07T01:12:45.809Z,84.60
2018-10-07T01:15:17.777Z,84.40
2018-10-07T01:17:49.669Z,83.80
2018-10-07T01:20:21.493Z,83.10
2018-10-07T01:22:53.081Z,82.50
2018-10-07T01:25:24.717Z,82.50
2018-10-07T01:27:56.469Z,82.80
2018-10-07T01:30:28.131Z,82.80
2018-10-07T01:32:59.749Z,83.20
2018-10-07T01:35:31.557Z,83.70
2018-10-07T01:38:03.170Z,83.60
2018-10-07T01:40:34.983Z,84.10
2018-10-07T01:43:06.844Z,84.90
2018-10-07T01:45:38.378Z,85.30
2018-10-07T01:48:10.128Z,85.50
2018-10-07T01:50:41.818Z,84.70
2018-10-07T01:53:13.589Z,84.60
2018-10-07T01:55:45.345Z,84.90
2018-10-07T01:58:17.074Z,85.30
2018-10-07T02:00:48.851Z,85.40
2018-10-07T02:03:20.609Z,85.10
2018-10-07T02:05:52.365Z,85.10
2018-10-07T02:08:24.128Z,85.70
2018-10-07T02:10:55.886Z,84.70
2018-10-07T02:13:27.529Z,85.60
2018-10-07T02:15:59.405Z,85.60
2018-10-07T02:18:31.039Z,85.60
2018-10-07T02:21:02.689Z,86.30
2018-10-07T02:23:34.474Z,86.30
2018-10-07T02:26:06.325Z,86.20
2018-10-07T02:28:38.170Z,86.20
2018-10-07T02:31:10.049Z,86.20
2018-10-07T02:33:41.593Z,86.50
2018-10-07T02:36:13.338Z,86.00
2018-10-07T02:38:45.098Z,86.00
2018-10-07T02:41:17.096Z,86.60
2018-10-07T02:43:48.749Z,86.70
2018-10-07T02:46:20.590Z,87.00
2018-10-07T02:48:52.241Z,86.80
2018-10-07T02:51:24.308Z,87.10
2018-10-07T02:53:56.341Z,87.40
2018-10-07T02:56:28.338Z,87.80
2018-10-07T02:59:00.227Z,88.00
2018-10-07T03:01:32.077Z,87.80
2018-10-07T03:04:04.147Z,88.20
2018-10-07T03:06:35.802Z,89.30
2018-10-07T03:09:09.893Z,88.80
2018-10-07T03:11:41.687Z,88.40
2018-10-07T03:14:13.331Z,87.90
2018-10-07T03:16:45.067Z,87.80
2018-10-07T03:19:16.640Z,87.30
2018-10-07T03:21:48.383Z,86.70
2018-10-07T03:24:20.034Z,85.60
2018-10-07T03:26:51.792Z,85.30
2018-10-07T03:29:23.643Z,85.30
2018-10-07T03:31:55.426Z,85.40
2018-10-07T03:34:27.173Z,85.20
2018-10-07T03:36:58.940Z,85.10
2018-10-07T03:39:30.621Z,85.00
2018-10-07T03:42:02.382Z,85.50
2018-10-07T03:44:34.098Z,85.90
2018-10-07T03:47:05.797Z,86.20
2018-10-07T03:49:37.729Z,86.70
2018-10-07T03:52:09.508Z,87.20
2018-10-07T03:54:41.285Z,86.90
2018-10-07T03:57:13.001Z,87.00
2018-10-07T03:59:44.847Z,86.80
2018-10-07T04:02:16.764Z,86.40
2018-10-07T04:04:48.729Z,86.50
2018-10-07T04:07:20.653Z,86.50
2018-10-07T04:09:52.311Z,85.90
2018-10-07T04:12:24.104Z,86.00
2018-10-07T04:14:55.737Z,86.80
2018-10-07T04:17:27.410Z,86.80
2018-10-07T04:19:59.065Z,86.20
2018-10-07T04:22:30.905Z,86.00
2018-10-07T04:25:02.581Z,86.10
2018-10-07T04:27:34.424Z,86.30
2018-10-07T04:30:06.111Z,87.50
2018-10-07T04:32:37.855Z,86.70
2018-10-07T04:35:09.806Z,87.00
2018-10-07T04:37:41.590Z,86.60
2018-10-07T04:40:13.335Z,86.80
2018-10-07T04:42:45.916Z,86.90
2018-10-07T04:45:17.586Z,86.90
2018-10-07T04:47:49.413Z,87.00
2018-10-07T04:50:21.177Z,87.20
2018-10-07T04:52:52.849Z,87.60
2018-10-07T04:55:24.621Z,87.70
2018-10-07T04:57:56.270Z,87.50
2018-10-07T05:00:28.002Z,88.40
2018-10-07T05:02:59.678Z,87.30
2018-10-07T05:05:31.817Z,86.90
2018-10-07T05:08:03.730Z,86.90
2018-10-07T05:10:53.181Z,87.60
2018-10-07T05:13:27.632Z,88.00
2018-10-07T05:16:04.440Z,87.60
2018-10-07T05:18:36.361Z,86.90
2018-10-07T05:21:08.347Z,86.50
2018-10-07T05:23:40.391Z,86.60
2018-10-07T05:26:12.157Z,87.20
2018-10-07T05:28:44.113Z,87.50
2018-10-07T05:31:15.838Z,87.60
2018-10-07T05:33:47.700Z,87.80
2018-10-07T05:36:19.471Z,87.80
2018-10-07T05:38:51.286Z,88.00
2018-10-07T05:41:23.008Z,88.10
2018-10-07T05:43:54.867Z,88.30
2018-10-07T05:46:26.720Z,88.80
2018-10-07T05:48:58.661Z,88.50
2018-10-07T05:51:30.521Z,88.30
2018-10-07T05:54:02.194Z,88.20
2018-10-07T05:56:33.916Z,88.50
2018-10-07T05:59:06.631Z,89.00
2018-10-07T06:01:43.274Z,88.70
2018-10-07T06:04:28.754Z,88.70
2018-10-07T06:07:02.830Z,88.50
2018-10-07T06:09:37.901Z,88.00
2018-10-07T06:12:09.677Z,88.10
2018-10-07T06:14:57.829Z,88.20
2018-10-07T06:17:29.827Z,88.60
2018-10-07T06:20:01.788Z,88.60
2018-10-07T06:22:33.543Z,88.50
2018-10-07T06:25:05.507Z,88.20
2018-10-07T06:27:37.451Z,87.90
2018-10-07T06:30:09.268Z,88.00
2018-10-07T06:32:41.116Z,88.10
2018-10-07T06:35:13.080Z,88.40
2018-10-07T06:37:45.003Z,88.10
2018-10-07T06:40:16.687Z,87.80
2018-10-07T06:42:48.645Z,87.70
2018-10-07T06:45:20.903Z,87.70
2018-10-07T06:47:52.382Z,88.10
2018-10-07T06:50:24.319Z,88.20
2018-10-07T06:52:56.257Z,88.20
2018-10-07T06:55:28.043Z,88.50
2018-10-07T06:57:59.808Z,88.70
2018-10-07T07:00:31.558Z,88.30
2018-10-07T07:03:03.286Z,88.10
2018-10-07T07:05:35.061Z,88.00
2018-10-07T07:08:07.005Z,88.00
2018-10-07T07:10:38.790Z,88.30
2018-10-07T07:13:10.620Z,87.60
2018-10-07T07:15:42.426Z,87.20
2018-10-07T07:18:14.269Z,87.30
2018-10-07T07:20:46.023Z,86.30
2018-10-07T07:23:17.775Z,85.90
2018-10-07T07:25:49.486Z,85.30
2018-10-07T07:28:21.190Z,84.70
2018-10-07T07:30:52.849Z,83.90
2018-10-07T07:33:24.712Z,83.40
2018-10-07T07:35:56.561Z,82.80
2018-10-07T07:38:28.231Z,82.70
2018-10-07T07:40:59.901Z,81.80
2018-10-07T07:43:31.641Z,81.40
2018-10-07T07:46:03.416Z,81.20
2018-10-07T07:48:35.190Z,80.10
2018-10-07T07:51:07.228Z,79.50
2018-10-07T07:53:39.077Z,78.80
2018-10-07T07:56:10.766Z,78.20
2018-10-07T07:58:42.405Z,77.60
2018-10-07T08:01:14.058Z,77.40
2018-10-07T08:03:46.147Z,77.00
2018-10-07T08:06:17.982Z,76.30
2018-10-07T08:08:49.489Z,76.00
2018-10-07T08:11:21.206Z,75.60
2018-10-07T08:13:52.987Z,75.30
2018-10-07T08:16:32.732Z,75.10
2018-10-07T08:19:05.485Z,74.80
2018-10-07T08:21:37.241Z,74.50
2018-10-07T08:24:09.022Z,74.00
2018-10-07T08:26:40.862Z,73.20
2018-10-07T08:29:12.522Z,72.90
2018-10-07T08:31:44.200Z,72.60
2018-10-07T08:34:16.033Z,72.20
2018-10-07T08:36:48.329Z,72.10
2018-10-07T08:39:19.874Z,71.50
2018-10-07T08:41:51.717Z,71.20
2018-10-07T08:44:23.399Z,70.80
2018-10-07T08:46:55.185Z,70.10
2018-10-07T08:49:27.123Z,69.10
2018-10-07T08:51:58.962Z,68.40
2018-10-07T08:54:30.753Z,67.50
2018-10-07T08:57:02.507Z,67.20
2018-10-07T08:59:34.342Z,66.30
2018-10-07T09:02:06.203Z,65.30
2018-10-07T09:04:38.105Z,64.40
2018-10-07T09:07:09.942Z,63.70
2018-10-07T09:09:41.793Z,64.20
2018-10-07T09:12:13.363Z,64.70
2018-10-07T09:14:45.378Z,64.50
2018-10-07T09:17:17.057Z,63.00
2018-10-07T09:19:48.494Z,60.10
2018-10-07T09:22:20.077Z,57.80
2018-10-07T09:24:51.531Z,54.00
2018-10-07T09:27:23.362Z,49.30
2018-10-07T09:29:55.264Z,46.20
2018-10-07T09:32:27.329Z,43.20
2018-10-07T09:34:59.098Z,42.60
2018-10-07T09:37:30.960Z,41.10
2018-10-07T09:40:02.913Z,41.10
2018-10-07T09:42:34.569Z,40.90
2018-10-07T09:45:06.575Z,41.70
2018-10-07T09:47:38.962Z,42.50
2018-10-07T09:50:10.966Z,43.60
2018-10-07T09:52:42.746Z,45.30
2018-10-07T09:55:14.646Z,46.80
2018-10-07T09:57:46.264Z,46.50
2018-10-07T10:00:36.683Z,46.80
2018-10-07T10:03:11.529Z,47.90
2018-10-07T10:05:43.422Z,48.90
2018-10-07T10:08:15.118Z,49.50
2018-10-07T10:10:46.737Z,49.70
2018-10-07T10:13:18.421Z,49.50
2018-10-07T10:15:50.170Z,49.30
2018-10-07T10:19:04.786Z,48.80
2018-10-07T10:21:44.622Z,48.30
2018-10-07T10:24:51.372Z,48.40
2018-10-07T10:27:45.046Z,48.30
2018-10-07T10:30:26.119Z,48.40
2018-10-07T10:33:09.248Z,48.10
2018-10-07T10:38:05.144Z,47.80
2018-10-07T10:40:50.161Z,47.60
2018-10-07T10:43:28.816Z,48.00
2018-10-07T10:46:15.706Z,46.80
2018-10-07T10:49:03.053Z,45.80
2018-10-07T10:51:43.126Z,44.80
2018-10-07T10:55:26.260Z,43.70
2018-10-07T10:58:02.306Z,42.60
2018-10-07T11:00:51.618Z,43.70
2018-10-07T11:04:40.653Z,44.10
2018-10-07T11:07:28.493Z,43.80
2018-10-07T11:11:18.069Z,43.40
2018-10-07T11:15:07.272Z,42.20
2018-10-07T11:19:57.480Z,42.30
2018-10-07T11:24:46.999Z,41.20
2018-10-07T11:27:35.097Z,40.80
2018-10-07T11:30:27.478Z,39.40
2018-10-07T11:35:15.703Z,38.10
2018-10-07T11:39:36.658Z,37.80
2018-10-07T11:42:21.814Z,37.70
2018-10-07T11:45:03.687Z,36.10
2018-10-07T11:50:00.341Z,35.60
2018-10-07T11:52:50.818Z,34.70
2018-10-07T11:55:22.713Z,33.80
2018-10-07T11:57:54.170Z,33.50
2018-10-07T12:00:26.101Z,33.50
2018-10-07T12:02:57.990Z,33.60
2018-10-07T12:05:29.753Z,33.80
2018-10-07T12:08:01.530Z,33.90
2018-10-07T12:10:33.369Z,33.90
2018-10-07T12:13:05.118Z,33.00
2018-10-07T12:15:37.098Z,32.50
2018-10-07T12:18:08.962Z,34.10
2018-10-07T12:20:40.617Z,35.30
2018-10-07T12:23:12.474Z,35.90
2018-10-07T12:25:44.231Z,35.10
2018-10-07T12:28:15.902Z,35.20
2018-10-07T12:30:47.749Z,35.00
2018-10-07T12:33:19.426Z,34.80
2018-10-07T12:35:51.361Z,34.40
2018-10-07T12:38:23.336Z,34.50
2018-10-07T12:40:55.086Z,33.60
2018-10-07T12:43:26.945Z,34.00
2018-10-07T12:45:58.917Z,35.20
2018-10-07T12:48:30.706Z,37.00
2018-10-07T12:51:02.437Z,39.00
2018-10-07T12:53:33.987Z,40.40
2018-10-07T12:56:05.870Z,42.60
2018-10-07T12:58:37.618Z,43.90
2018-10-07T13:01:09.912Z,44.90
2018-10-07T13:03:41.700Z,45.80
2018-10-07T13:06:13.493Z,46.30
2018-10-07T13:08:45.182Z,46.90
2018-10-07T13:11:17.046Z,47.20
2018-10-07T13:13:48.698Z,47.50
2018-10-07T13:16:20.446Z,48.00
2018-10-07T13:18:52.293Z,48.70
2018-10-07T13:21:24.188Z,49.20
2018-10-07T13:23:56.049Z,49.30
2018-10-07T13:26:27.784Z,47.00
2018-10-07T13:28:59.646Z,44.40
2018-10-07T13:31:31.415Z,42.50
2018-10-07T13:34:03.264Z,40.30
2018-10-07T13:36:35.005Z,37.90
2018-10-07T13:39:10.407Z,36.00
2018-10-07T13:41:42.553Z,34.00
2018-10-07T13:44:14.298Z,33.60
2018-10-07T13:46:46.071Z,33.10
2018-10-07T13:49:17.936Z,32.90
2018-10-07T13:51:49.699Z,33.00
2018-10-07T13:54:21.545Z,34.20
2018-10-07T13:56:53.382Z,36.00
2018-10-07T13:59:25.071Z,37.90
2018-10-07T14:01:56.815Z,39.70
2018-10-07T14:04:28.657Z,40.30
2018-10-07T14:07:00.323Z,39.70
2018-10-07T14:09:31.993Z,38.80
2018-10-07T14:12:03.767Z,38.10
2018-10-07T14:14:35.621Z,37.20
2018-10-07T14:17:07.466Z,36.80
2018-10-07T14:19:39.303Z,37.10
2018-10-07T14:22:10.977Z,38.70
2018-10-07T14:24:42.744Z,41.10
2018-10-07T14:27:14.629Z,43.10
2018-10-07T14:29:46.358Z,44.90
2018-10-07T14:32:18.116Z,46.30
2018-10-07T14:34:49.778Z,47.30
2018-10-07T14:37:21.478Z,48.20
2018-10-07T14:39:53.199Z,49.10
2018-10-07T14:42:24.859Z,49.80
2018-10-07T14:44:56.634Z,50.30
2018-10-07T14:47:28.383Z,50.80
2018-10-07T14:50:00.214Z,51.10
2018-10-07T14:52:31.834Z,51.90
2018-10-07T14:55:03.675Z,52.30
2018-10-07T14:57:35.392Z,52.90
2018-10-07T15:00:07.889Z,53.50
2018-10-07T15:02:39.765Z,53.80
2018-10-07T15:05:11.532Z,54.30
2018-10-07T15:07:43.354Z,54.70
2018-10-07T15:10:15.029Z,54.80
2018-10-07T15:12:46.880Z,55.20
2018-10-07T15:15:18.726Z,55.30
2018-10-07T15:17:50.395Z,55.30
2018-10-07T15:20:22.071Z,55.40
2018-10-07T15:22:53.908Z,55.60
2018-10-07T15:25:25.688Z,55.70
2018-10-07T15:27:57.458Z,56.20
2018-10-07T15:30:29.287Z,56.30
2018-10-07T15:33:01.051Z,55.80
2018-10-07T15:35:32.726Z,54.60
2018-10-07T15:38:04.578Z,54.30
2018-10-07T15:40:36.726Z,54.70
2018-10-07T15:43:08.599Z,55.50
2018-10-07T15:45:41.803Z,56.40
2018-10-07T15:48:15.001Z,57.10
2018-10-07T15:50:47.709Z,57.60
2018-10-07T15:53:20.192Z,58.20
2018-10-07T15:56:07.383Z,58.70
2018-10-07T15:58:42.238Z,59.10
2018-10-07T16:01:14.302Z,59.70
2018-10-07T16:04:26.416Z,60.00
2018-10-07T16:07:02.269Z,60.60
2018-10-07T16:09:34.940Z,60.90
2018-10-07T16:12:07.210Z,61.10
2018-10-07T16:14:39.171Z,61.50
2018-10-07T16:17:11.246Z,61.90
2018-10-07T16:19:46.008Z,62.60
2018-10-07T16:22:21.098Z,62.70
2018-10-07T16:24:52.735Z,63.00
2018-10-07T16:27:24.595Z,63.00
2018-10-07T16:29:56.172Z,63.00
2018-10-07T16:32:27.919Z,62.90
2018-10-07T16:34:59.782Z,62.80
2018-10-07T16:37:31.624Z,62.90
2018-10-07T16:40:03.306Z,63.30
2018-10-07T16:42:34.962Z,63.60
2018-10-07T16:45:07.200Z,64.00
2018-10-07T16:47:39.107Z,64.60
2018-10-07T16:50:10.925Z,65.10
2018-10-07T16:52:42.968Z,65.50
2018-10-07T16:55:14.756Z,66.00
2018-10-07T16:57:46.513Z,66.20
2018-10-07T17:00:18.298Z,66.30
2018-10-07T17:02:50.144Z,66.60
2018-10-07T17:05:21.986Z,66.60
2018-10-07T17:07:53.635Z,66.40
2018-10-07T17:10:25.318Z,66.70
2018-10-07T17:12:57.105Z,66.80
2018-10-07T17:15:28.835Z,67.50
2018-10-07T17:18:00.695Z,67.70
2018-10-07T17:20:32.562Z,67.90
2018-10-07T17:23:04.310Z,68.10
2018-10-07T17:25:35.984Z,68.20
2018-10-07T17:28:07.919Z,68.90
2018-10-07T17:30:39.589Z,68.20
2018-10-07T17:33:11.259Z,68.20
2018-10-07T17:35:43.040Z,68.40
2018-10-07T17:38:14.779Z,68.60
2018-10-07T17:40:46.746Z,68.80
2018-10-07T17:43:18.608Z,69.00
2018-10-07T17:45:50.488Z,69.40
2018-10-07T17:48:22.467Z,69.50
2018-10-07T17:50:53.875Z,69.60
2018-10-07T17:53:25.631Z,69.90
2018-10-07T17:55:57.375Z,70.30
2018-10-07T17:58:29.054Z,70.10
2018-10-07T18:01:00.986Z,70.10
2018-10-07T18:03:32.864Z,70.20
2018-10-07T18:06:04.544Z,70.10
2018-10-07T18:08:36.776Z,70.00
2018-10-07T18:11:08.624Z,70.10
2018-10-07T18:13:40.712Z,70.20
2018-10-07T18:16:12.496Z,70.20
2018-10-07T18:18:44.233Z,70.40
2018-10-07T18:21:16.085Z,70.90
2018-10-07T18:23:47.676Z,70.90
2018-10-07T18:26:19.322Z,71.00
2018-10-07T18:28:51.193Z,71.10
2018-10-07T18:31:22.925Z,71.70
2018-10-07T18:33:54.606Z,72.30
2018-10-07T18:36:26.346Z,71.90
2018-10-07T18:38:58.218Z,71.60
2018-10-07T18:41:30.019Z,71.70
2018-10-07T18:44:01.874Z,71.80
2018-10-07T18:46:33.556Z,71.80
2018-10-07T18:49:05.720Z,72.00
2018-10-07T18:51:37.584Z,72.00
2018-10-07T18:54:09.292Z,72.00
2018-10-07T18:56:41.184Z,72.10
2018-10-07T18:59:12.897Z,72.10
2018-10-07T19:01:44.509Z,72.20
2018-10-07T19:04:16.408Z,72.40
2018-10-07T19:06:48.080Z,72.70
2018-10-07T19:09:19.739Z,73.00
2018-10-07T19:11:51.670Z,73.20
2018-10-07T19:14:23.429Z,73.70
2018-10-07T19:16:55.202Z,73.90
2018-10-07T19:19:27.188Z,73.80
2018-10-07T19:21:58.948Z,73.80
2018-10-07T19:24:30.790Z,73.90
2018-10-07T19:27:02.738Z,73.90
2018-10-07T19:29:34.570Z,74.30
2018-10-07T19:32:06.202Z,74.60
2018-10-07T19:34:38.170Z,74.70
2018-10-07T19:37:09.969Z,75.00
2018-10-07T19:39:41.577Z,74.80
2018-10-07T19:42:13.411Z,75.60
2018-10-07T19:44:45.100Z,75.00
2018-10-07T19:47:16.923Z,74.90
2018-10-07T19:49:48.706Z,75.00
2018-10-07T19:52:20.625Z,74.40
2018-10-07T19:54:52.397Z,75.30
2018-10-07T19:57:24.159Z,75.50
2018-10-07T19:59:55.814Z,75.70
2018-10-07T20:02:27.489Z,76.70
2018-10-07T20:04:59.363Z,76.60
2018-10-07T20:07:31.222Z,76.70
2018-10-07T20:10:02.983Z,76.50
2018-10-07T20:12:34.812Z,76.80
2018-10-07T20:15:06.752Z,76.80
2018-10-07T20:17:38.468Z,77.60
2018-10-07T20:20:10.296Z,76.90
2018-10-07T20:22:42.067Z,76.90
2018-10-07T20:25:13.840Z,76.90
2018-10-07T20:27:45.879Z,76.80
2018-10-07T20:30:17.651Z,76.50
2018-10-07T20:32:49.628Z,76.50
2018-10-07T20:35:21.399Z,76.50
2018-10-07T20:37:53.407Z,76.50
2018-10-07T20:40:25.127Z,76.50
2018-10-07T20:42:56.836Z,76.50
2018-10-07T20:45:28.591Z,76.40
2018-10-07T20:48:00.355Z,76.50
2018-10-07T20:50:32.324Z,76.70
2018-10-07T20:53:03.983Z,76.60
2018-10-07T20:55:35.663Z,76.50
2018-10-07T20:58:07.623Z,76.30
2018-10-07T21:00:39.359Z,76.70
2018-10-07T21:03:11.134Z,76.40
2018-10-07T21:05:42.984Z,76.20
2018-10-07T21:08:14.728Z,76.60
2018-10-07T21:10:46.500Z,76.60
2018-10-07T21:13:18.069Z,76.40
2018-10-07T21:15:49.827Z,76.50
2018-10-07T21:18:21.703Z,76.60
2018-10-07T21:20:53.562Z,77.10
2018-10-07T21:23:25.213Z,77.30
2018-10-07T21:25:57.182Z,77.70
2018-10-07T21:28:29.043Z,78.30
2018-10-07T21:31:00.791Z,78.60
2018-10-07T21:33:32.739Z,78.80
2018-10-07T21:36:04.406Z,78.90
2018-10-07T21:38:36.100Z,79.00
2018-10-07T21:41:08.145Z,79.10
2018-10-07T21:43:39.986Z,78.90
2018-10-07T21:46:11.679Z,78.90
2018-10-07T21:48:43.522Z,79.10
2018-10-07T21:51:15.258Z,78.90
2018-10-07T21:53:46.930Z,78.80
2018-10-07T21:56:18.774Z,78.50
2018-10-07T21:58:50.471Z,78.60
2018-10-07T22:01:22.508Z,78.20
2018-10-07T22:03:54.458Z,78.60
2018-10-07T22:06:26.247Z,78.40
2018-10-07T22:08:58.002Z,78.10
2018-10-07T22:11:29.842Z,78.80
2018-10-07T22:14:01.605Z,79.40
2018-10-07T22:16:33.283Z,80.30
2018-10-07T22:19:05.152Z,81.30
2018-10-07T22:21:37.075Z,81.40
2018-10-07T22:24:09.203Z,81.80
2018-10-07T22:26:40.914Z,81.70
2018-10-07T22:29:12.591Z,81.90
2018-10-07T22:31:44.327Z,81.70
2018-10-07T22:34:15.987Z,81.20
2018-10-07T22:36:47.671Z,81.20
2018-10-07T22:39:19.406Z,80.30
2018-10-07T22:41:51.259Z,80.10
2018-10-07T22:44:22.919Z,80.20
2018-10-07T22:46:54.677Z,80.30
2018-10-07T22:49:26.525Z,80.30
2018-10-07T22:51:58.195Z,79.80
2018-10-07T22:54:29.944Z,79.00
2018-10-07T22:57:01.713Z,79.60
2018-10-07T22:59:33.369Z,80.10
2018-10-07T23:02:05.231Z,80.90
2018-10-07T23:04:37.103Z,81.60
2018-10-07T23:07:08.971Z,81.70
2018-10-07T23:09:40.723Z,82.30
2018-10-07T23:12:12.675Z,82.20
2018-10-07T23:14:44.563Z,83.50
2018-10-07T23:17:16.374Z,83.80
2018-10-07T23:19:48.153Z,83.80
2018-10-07T23:22:20.440Z,83.80
2018-10-07T23:24:52.373Z,83.70
2018-10-07T23:27:24.247Z,84.00
2018-10-07T23:29:55.919Z,84.10
2018-10-07T23:32:27.885Z,83.50
2018-10-07T23:34:59.722Z,84.20
2018-10-07T23:37:31.564Z,84.80
2018-10-07T23:40:03.590Z,85.00
2018-10-07T23:42:35.512Z,85.90
2018-10-07T23:45:07.620Z,86.30
2018-10-07T23:47:39.354Z,86.50
2018-10-07T23:50:11.135Z,86.50
2018-10-07T23:52:42.952Z,86.20
2018-10-07T23:55:14.645Z,85.50
2018-10-07T23:57:46.504Z,85.00
